• Join FlightAware (Why Join?)
  • Login
  • US Flag 
Rudolph Flight #1: Arrived! 
01:03PM EST


 

Airport Tracker/Info


-or-


 

Live Flight TrackerFlight Track Log ✈ UAL1206 ✈ 15-May-2013 ✈ KIAH - KPHL

Flight Track Log - Related Links

Times and Time Zones

All times are in EDT time to prevent confusion due to time zone crossing. See the UAL1206 flight status page for this flight to view local times or setup timezone preferences in your user account.

Time Position Orientation Groundspeed Altitude Reporting Facility
EDT Latitude Longitude Course Direction KTS MPH feet Rate Location/Type
02:09PM 29.9783 -95.2958 34° Northeast 171 197 800  Level Houston Center
02:10PM 30.0453 -95.2708 18° North 260 299 3,000 1,500 Climbing Houston Center
02:11PM 30.1189 -95.2497 14° North 295 339 4,100 1,860 Climbing Houston Center
02:12PM 30.2907 -95.0840 30° Northeast  Level FlightAware Approximate
02:13PM 30.3956 -95.0035 35° Northeast  Level FlightAware Approximate
02:13PM 30.2019 -95.2131 21° North 302 348 7,100  Level Houston Center
02:14PM 30.4974 -94.9184 30° Northeast  Level FlightAware Approximate
02:14PM 30.2667 -95.1444 42° Northeast 314 361 10,300  Level Houston Center
02:15PM 30.6010 -94.8363 34° Northeast  Level FlightAware Approximate
02:15PM 30.3411 -95.0719 40° Northeast 347 399 12,200  Level Houston Center
02:16PM 30.4203 -94.9931 41° Northeast 370 426 15,100 2,700 Climbing Houston Center
02:17PM 30.5253 -94.9133 33° Northeast 388 447 17,800 2,220 Climbing Houston Center
02:18PM 30.6194 -94.8406 34° Northeast 402 463 19,700 1,740 Climbing Houston Center
02:19PM 30.7189 -94.7639 34° Northeast 422 486 21,500 1,920 Climbing Houston Center
02:20PM 30.8411 -94.6692 34° Northeast 438 504 23,700 1,740 Climbing Houston Center
02:21PM 30.9461 -94.5878 34° Northeast 452 520 25,100 1,440 Climbing Houston Center
02:22PM 31.0417 -94.4822 43° Northeast 455 524 26,600 1,560 Climbing Fort Worth Center
02:23PM 31.1286 -94.3678 48° Northeast 461 531 28,200 1,500 Climbing Fort Worth Center
02:24PM 31.2347 -94.2672 39° Northeast 471 542 29,600 1,200 Climbing Fort Worth Center
02:25PM 31.3494 -94.1831 32° Northeast 482 555 30,700 1,020 Climbing Fort Worth Center
02:26PM 31.4683 -94.0986 31° Northeast 488 562 31,700 1,080 Climbing Fort Worth Center
02:27PM 31.5892 -94.0089 32° Northeast 493 567 32,900 960 Climbing Fort Worth Center
02:28PM 31.6978 -93.9317 31° Northeast 498 573 33,700 1,140 Climbing Fort Worth Center
02:29PM 31.8286 -93.8339 32° Northeast 504 580 35,200 1,080 Climbing Fort Worth Center
02:30PM 31.9489 -93.7408 33° Northeast 511 588 35,900 840 Climbing Fort Worth Center
02:31PM 32.0656 -93.6553 32° Northeast 503 579 36,900 540 Climbing Fort Worth Center
02:32PM 32.1733 -93.5650 35° Northeast 510 587 37,000  Climbing Fort Worth Center
02:33PM 32.2897 -93.4767 33° Northeast 510 587 37,000  Level Fort Worth Center
02:34PM 32.4081 -93.3903 32° Northeast 510 587 37,000  Level Fort Worth Center
02:35PM 32.5261 -93.3014 32° Northeast 505 581 37,000  Level Fort Worth Center
02:36PM 32.6422 -93.2122 33° Northeast 500 575 37,000  Level Fort Worth Center
02:37PM 32.7447 -93.0986 43° Northeast 500 575 37,000  Level Fort Worth Center
02:38PM 32.8253 -92.9564 56° Northeast 500 575 37,000  Level Fort Worth Center
02:39PM 32.9061 -92.8186 55° Northeast 500 575 37,000  Level Fort Worth Center
02:40PM 32.9883 -92.6758 56° Northeast 505 581 37,000  Level Fort Worth Center
02:41PM 33.0664 -92.5353 56° Northeast 510 587 37,000  Level Fort Worth Center
02:42PM 33.1975 -92.3061 56° Northeast 509 586 37,000  Level Memphis Center
02:43PM 33.2789 -92.1636 56° Northeast 509 586 37,000  Level Memphis Center
02:44PM 33.3603 -92.0236 55° Northeast 509 586 37,000  Level Memphis Center
02:45PM 33.4392 -91.8858 56° Northeast 504 580 37,000  Level Memphis Center
02:46PM 33.5139 -91.7425 58° Northeast 504 580 37,000  Level Memphis Center
02:47PM 33.5778 -91.6189 58° Northeast 498 573 37,000  Level Memphis Center
02:48PM 33.6564 -91.4778 56° Northeast 498 573 37,000  Level Memphis Center
02:49PM 33.7328 -91.3364 57° Northeast 498 573 37,000  Level Memphis Center
02:50PM 33.8236 -91.1822 55° Northeast 505 581 37,000  Level Memphis Center
02:51PM 33.8975 -91.0378 58° Northeast 505 581 37,000  Level Memphis Center
02:52PM 33.9733 -90.8981 57° Northeast 505 581 37,000  Level Memphis Center
02:53PM 34.0531 -90.7583 55° Northeast 499 574 37,000  Level Memphis Center
02:54PM 34.1222 -90.6306 57° Northeast 510 587 37,000  Level Memphis Center
02:55PM 34.1978 -90.4853 58° Northeast 503 579 37,000  Level Memphis Center
02:56PM 34.2750 -90.3447 56° Northeast 503 579 37,000  Level Memphis Center
02:57PM 34.3519 -90.1986 57° Northeast 503 579 37,000  Level Memphis Center
02:58PM 34.4247 -90.0575 58° Northeast 503 579 37,000  Level Memphis Center
02:59PM 34.5017 -89.9161 57° Northeast 503 579 37,000  Level Memphis Center
03:00PM 34.5742 -89.7719 59° Northeast 503 579 37,000  Level Memphis Center
03:01PM 34.6483 -89.6300 58° Northeast 503 579 37,000  Level Memphis Center
03:02PM 34.7247 -89.4853 57° Northeast 503 579 37,000  Level Memphis Center
03:03PM 34.8008 -89.3431 57° Northeast 503 579 37,000  Level Memphis Center
03:04PM 34.8747 -89.2003 58° Northeast 503 579 37,000  Level Memphis Center
03:05PM 34.9483 -89.0600 57° Northeast 503 579 37,000  Level Memphis Center
03:06PM 35.0219 -88.9194 57° Northeast 503 579 37,000  Level Memphis Center
03:07PM 35.0992 -88.7658 58° Northeast 497 572 37,000  Level Memphis Center
03:08PM 35.1725 -88.6247 58° Northeast 497 572 37,000  Level Memphis Center
03:09PM 35.2436 -88.4858 58° Northeast 491 565 37,000  Level Memphis Center
03:10PM 35.3083 -88.3672 56° Northeast 473 544 37,000  Level Memphis Center
03:11PM 35.3811 -88.2256 58° Northeast 473 544 37,000  Level Memphis Center
03:12PM 35.4556 -88.0733 59° Northeast 479 551 37,000  Level Memphis Center
03:13PM 35.5281 -87.9283 58° Northeast 486 559 37,000  Level Memphis Center
03:14PM 35.5981 -87.7886 58° Northeast 481 554 37,000  Level Memphis Center
03:15PM 35.6700 -87.6458 58° Northeast 481 554 37,000  Level Memphis Center
03:16PM 35.7378 -87.5003 60° Northeast 481 554 37,000  Level Memphis Center
03:17PM 35.8075 -87.3597 59° Northeast 475 547 37,000  Level Memphis Center
03:18PM 35.8811 -87.2133 58° Northeast 487 560 37,000  Level Memphis Center
03:19PM 35.9481 -87.0697 60° Northeast 487 560 37,000  Level Memphis Center
03:20PM 36.0150 -86.9233 60° Northeast 487 560 37,000  Level Memphis Center
03:21PM 36.0819 -86.7769 60° Northeast 493 567 37,000  Level Memphis Center
03:22PM 36.1525 -86.6297 59° Northeast 493 567 37,000  Level Memphis Center
03:23PM 36.2253 -86.4825 58° Northeast 493 567 37,000  Level Memphis Center
03:24PM 36.2917 -86.3403 60° Northeast 493 567 37,000  Level Memphis Center
03:25PM 36.3467 -86.1828 67° East 493 567 37,000  Level Memphis Center
03:26PM 36.3933 -86.0233 70° East 486 559 37,000  Level Memphis Center
03:28PM 36.4856 -85.7322 68° East 497 572 37,000  Level Indianapolis Center
03:29PM 36.5425 -85.5389 70° East 493 567 37,000  Level Indianapolis Center
03:31PM 36.5922 -85.3792 69° East 492 566 37,000  Level Indianapolis Center
03:32PM 36.6397 -85.2206 69° East 488 562 37,000  Level Indianapolis Center
03:33PM 36.6875 -85.0611 69° East 488 562 37,000  Level Indianapolis Center
03:34PM 36.7342 -84.9006 70° East 490 564 37,000  Level Indianapolis Center
03:35PM 36.7803 -84.7419 70° East 487 560 37,000  Level Indianapolis Center
03:36PM 36.8258 -84.5861 70° East 478 550 37,000  Level Indianapolis Center
03:37PM 36.8758 -84.4175 70° East 476 548 37,000  Level Indianapolis Center
03:38PM 36.9231 -84.2622 69° East 479 551 37,000  Level Indianapolis Center
03:39PM 36.9733 -84.0800 71° East 477 549 37,000  Level Indianapolis Center
03:40PM 37.0183 -83.9247 70° East 474 545 37,000  Level Indianapolis Center
03:41PM 37.0631 -83.7706 70° East 472 543 37,000  Level Indianapolis Center
03:42PM 37.1072 -83.6181 70° East 469 540 37,000  Level Indianapolis Center
03:43PM 37.1506 -83.4644 70° East 467 537 37,000  Level Indianapolis Center
03:44PM 37.1944 -83.3086 70° East 469 540 37,000  Level Indianapolis Center
03:45PM 37.2458 -83.1281 70° East 469 540 37,000  Level Indianapolis Center
03:46PM 37.2886 -82.9714 71° East 469 540 37,000  Level Indianapolis Center
03:47PM 37.3172 -82.8119 77° East 468 539 37,000  Level Indianapolis Center
03:48PM 37.3183 -82.6511 89° East 456 525 37,000  Level Indianapolis Center
03:49PM 37.3186 -82.4908 90° East 455 524 37,000  Level Indianapolis Center
03:50PM 37.3183 -82.3308 90° East 455 524 37,000  Level Indianapolis Center
03:51PM 37.3189 -82.1728 90° East 453 521 37,000  Level Indianapolis Center
03:52PM 37.3189 -81.9853 90° East 457 526 37,000  Level Indianapolis Center
03:53PM 37.3406 -81.8306 80° East 460 529 37,000  Level Indianapolis Center
03:54PM 37.4314 -81.7275 42° Northeast 442 509 37,000  Level Indianapolis Center
03:55PM 37.5381 -81.6656 25° Northeast 426 490 37,000  Level Indianapolis Center
03:56PM 37.6489 -81.6194 18° North 419 482 37,000  Level Indianapolis Center
03:57PM 37.7600 -81.5706 19° North 420 483 37,000 -120 Level Indianapolis Center
03:58PM 37.8492 -81.4506 47° Northeast 442 509 36,800 -600 Descending Indianapolis Center
03:59PM 37.8744 -81.3014 78° East 443 510 35,800 -900 Descending Indianapolis Center
04:00PM 37.8789 -81.1478 88° East 440 506 35,000 -420 Descending Indianapolis Center
04:02PM 37.8831 -80.9653 88° East 435 501 35,000  Level Indianapolis Center
04:03PM 37.8853 -80.8114 89° East 438 504 35,000  Level Indianapolis Center
04:03PM 37.8858 -80.7806 89° East 423 487 35,000 -180 Level Washington Center
04:04PM 37.8881 -80.6281 89° East 423 487 34,800 -660 Descending Washington Center
04:05PM 37.8906 -80.4678 89° East 429 494 33,800 -960 Descending Washington Center
04:06PM 37.8967 -80.3156 87° East 435 501 33,000 -420 Descending Washington Center
04:07PM 37.9097 -80.1400 85° East 445 512 33,000  Level Washington Center
04:08PM 37.9200 -79.9775 85° East 450 518 33,000  Level Washington Center
04:09PM 37.9300 -79.8147 85° East 456 525 33,000  Level Washington Center
04:10PM 37.9400 -79.6494 86° East 462 532 33,000  Level Washington Center
04:11PM 37.9514 -79.4947 85° East 470 541 33,000  Level Washington Center
04:12PM 37.9608 -79.3292 86° East 475 547 33,000  Level Washington Center
04:13PM 37.9681 -79.1608 87° East 475 547 33,000  Level Washington Center
04:14PM 37.9769 -78.9953 86° East 475 547 33,000  Level Washington Center
04:15PM 37.9858 -78.8272 86° East 475 547 33,000  Level Washington Center
04:16PM 37.9947 -78.6431 86° East 475 547 33,000  Level Washington Center
04:17PM 38.0031 -78.4747 86° East 475 547 33,000  Level Washington Center
04:18PM 38.0111 -78.3064 86° East 475 547 33,000 -360 Level Washington Center
04:19PM 38.0250 -78.1461 84° East 469 540 32,300 -840 Descending Washington Center
04:20PM 38.0908 -78.0006 60° Northeast 454 522 31,300 -1,020 Descending Washington Center
04:21PM 38.1603 -77.8603 58° Northeast 459 528 30,300 -1,020 Descending Washington Center
04:22PM 38.2272 -77.7247 58° Northeast 459 528 29,300 -660 Descending Washington Center
04:23PM 38.2944 -77.5864 58° Northeast 459 528 29,000 -180 Descending Washington Center
04:24PM 38.3656 -77.4428 58° Northeast 464 534 29,000  Level Washington Center
04:25PM 38.4342 -77.3014 58° Northeast 469 540 29,000 -480 Level Washington Center
04:26PM 38.5050 -77.1597 57° Northeast 469 540 28,100 -960 Descending Washington Center
04:27PM 38.5756 -77.0150 58° Northeast 469 540 27,100 -1,140 Descending Washington Center
04:28PM 38.6417 -76.8728 59° Northeast 463 533 25,800 -1,620 Descending Washington Center
04:29PM 38.7036 -76.7328 60° Northeast 458 527 23,900 -1,560 Descending Washington Center
04:30PM 38.7383 -76.5844 73° East 446 513 22,800 -1,380 Descending Washington Center
04:31PM 38.7686 -76.4356 75° East 433 498 21,200 -1,860 Descending Washington Center
04:32PM 38.7967 -76.2869 76° East 427 491 19,100 -2,220 Descending Washington Center
04:33PM 38.8308 -76.1486 72° East 416 479 16,800 -2,100 Descending Washington Center
04:34PM 38.8564 -76.0075 77° East 411 473 14,900 -1,020 Descending Washington Center
04:35PM 38.9169 -75.9039 53° Northeast 373 429 14,900 -420 Level Washington Center
04:36PM 39.0089 -75.8481 25° Northeast 347 399 14,100 -1,320 Descending Washington Center
04:38PM 39.1833 -75.7333 27° Northeast 340 391 11,100 -1,440 Descending Philadelphia TRACON
04:39PM 39.2667 -75.6667 32° Northeast 315 362 10,000 -900 Descending Philadelphia TRACON
04:40PM 39.3333 -75.6167 30° Northeast 296 341 9,300 -900 Descending Philadelphia TRACON
04:41PM 39.3667 -75.5333 63° Northeast 325 374 8,300 -960 Descending Philadelphia TRACON
04:42PM 39.4000 -75.4167 70° East 307 353 7,400 -780 Descending Philadelphia TRACON
04:43PM 39.4667 -75.3333 44° Northeast 268 308 6,600 -720 Descending Philadelphia TRACON
04:44PM 39.5167 -75.2667 46° Northeast 260 299 5,900 -420 Descending Philadelphia TRACON
04:45PM 39.5500 -75.2167 49° Northeast 241 277 5,900  Level Philadelphia TRACON
04:46PM 39.6000 -75.1500 46° Northeast 245 282 5,900  Level Philadelphia TRACON
04:47PM 39.6500 -75.1000 38° Northeast 244 281 5,900  Level Philadelphia TRACON
04:48PM 39.7000 -75.0833 14° North 214 246 5,900  Level Philadelphia TRACON
04:49PM 39.7500 -75.0833 360° North 216 249 5,900  Level Philadelphia TRACON
04:50PM 39.8167 -75.0500 21° North 252 290 5,900  Level Philadelphia TRACON
04:51PM 39.8333 -74.9667 75° East 239 275 5,900 -540 Level Philadelphia TRACON
04:52PM 39.8500 -74.8833 75° East 240 276 4,900 -600 Descending Philadelphia TRACON
04:53PM 39.8667 -74.8000 75° East 236 272 4,700 -480 Descending Philadelphia TRACON
04:54PM 39.9333 -74.8167 349° North 172 198 3,900 -420 Descending Philadelphia TRACON
04:55PM 39.9500 -74.8667 294° West 174 200 3,900  Level Philadelphia TRACON
04:56PM 39.9333 -74.9333 252° West 159 183 3,900 -120 Level Philadelphia TRACON
04:57PM 39.9167 -74.9833 247° West 154 177 3,700 -540 Descending Philadelphia TRACON
04:58PM 39.9167 -75.0333 270° West 160 184 2,900 -840 Descending Philadelphia TRACON